Time;durP1;ratioP1;P1;durP2;ratioP2;P2;SDS_P1;SDS_P2;PMS_P1;PMS_P2;Temp;Humidity;BMP_temperature;BMP_pressure;BME280_temperature;BME280_humidity;BME280_pressure;Samples;Min_cycle;Max_cycle;Signal;HPM_P1;HPM_P2
2024/01/12 00:04:53;;;;;;;40.88;23.33;;;;;;;;;;10540287;28;20015;-77
2024/01/12 00:09:53;;;;;;;46.03;24.05;;;;;;;;;;10522251;28;20310;-77
2024/01/12 00:14:54;;;;;;;43.40;22.95;;;;;;;;;;10539723;28;20052;-77
2024/01/12 00:19:54;;;;;;;41.88;26.55;;;;;;;;;;10539705;28;20028;-76
2024/01/12 00:24:54;;;;;;;43.92;24.33;;;;;;;;;;10539773;28;20016;-76
2024/01/12 00:29:55;;;;;;;33.50;25.02;;;;;;;;;;10545683;28;20207;-76
2024/01/12 00:34:55;;;;;;;40.22;23.60;;;;;;;;;;10547531;28;20038;-77
2024/01/12 00:39:55;;;;;;;33.15;21.75;;;;;;;;;;10547008;28;20051;-76
2024/01/12 00:44:55;;;;;;;38.35;24.30;;;;;;;;;;10546912;28;20027;-75
2024/01/12 00:49:55;;;;;;;38.88;18.05;;;;;;;;;;10528860;28;20069;-76
2024/01/12 00:54:56;;;;;;;30.73;16.73;;;;;;;;;;10546930;28;20332;-75
2024/01/12 00:59:56;;;;;;;31.85;20.40;;;;;;;;;;10546436;28;20021;-76
2024/01/12 01:04:56;;;;;;;29.45;15.98;;;;;;;;;;10528215;28;20305;-77
2024/01/12 01:09:56;;;;;;;26.65;14.77;;;;;;;;;;10534627;28;20318;-76
2024/01/12 01:14:56;;;;;;;32.50;15.05;;;;;;;;;;10539070;28;20047;-76
2024/01/12 01:19:57;;;;;;;18.73;11.57;;;;;;;;;;10546026;28;20086;-76
2024/01/12 01:24:57;;;;;;;24.38;14.90;;;;;;;;;;10545796;28;20012;-75
2024/01/12 01:29:58;;;;;;;21.92;12.02;;;;;;;;;;10532000;28;20237;-76
2024/01/12 01:34:59;;;;;;;22.85;14.07;;;;;;;;;;10527588;28;20045;-76
2024/01/12 01:40:01;;;;;;;15.30;10.98;;;;;;;;;;10513637;28;20375;-75
2024/01/12 01:45:02;;;;;;;19.88;13.93;;;;;;;;;;10545674;28;20371;-76
2024/01/12 01:50:03;;;;;;;26.38;13.25;;;;;;;;;;10545084;28;20081;-75
2024/01/12 01:55:03;;;;;;;25.20;14.63;;;;;;;;;;10544357;28;20318;-75
2024/01/12 02:00:04;;;;;;;27.33;16.23;;;;;;;;;;10544465;28;20016;-75
2024/01/12 02:05:05;;;;;;;24.98;15.75;;;;;;;;;;10544926;28;20222;-76
2024/01/12 02:10:06;;;;;;;26.30;16.30;;;;;;;;;;10525820;28;20066;-76
2024/01/12 02:15:07;;;;;;;29.73;16.55;;;;;;;;;;10544045;28;20020;-77
2024/01/12 02:20:07;;;;;;;30.55;17.67;;;;;;;;;;10549100;28;20020;-75
2024/01/12 02:25:09;;;;;;;27.48;14.23;;;;;;;;;;10543537;28;20325;-77
2024/01/12 02:30:09;;;;;;;33.78;14.68;;;;;;;;;;10529482;28;20217;-76
2024/01/12 02:35:10;;;;;;;23.70;12.10;;;;;;;;;;10543527;28;20054;-77
2024/01/12 02:40:10;;;;;;;21.17;12.70;;;;;;;;;;10524480;28;20040;-77
2024/01/12 02:45:10;;;;;;;23.80;12.80;;;;;;;;;;10543833;28;20019;-76
2024/01/12 02:50:11;;;;;;;22.52;15.68;;;;;;;;;;10535931;28;20314;-76
2024/01/12 02:55:11;;;;;;;27.30;15.75;;;;;;;;;;10532869;28;20050;-76
2024/01/12 03:00:12;;;;;;;25.08;15.18;;;;;;;;;;10541613;28;20293;-76
2024/01/12 03:05:12;;;;;;;27.30;15.70;;;;;;;;;;10523932;28;20058;-76
2024/01/12 03:10:12;;;;;;;27.35;16.25;;;;;;;;;;10541776;28;20039;-74
2024/01/12 03:15:13;;;;;;;32.92;17.40;;;;;;;;;;10541778;28;20031;-75
2024/01/12 03:20:13;;;;;;;33.50;19.30;;;;;;;;;;10523230;28;20020;-75
2024/01/12 03:25:13;;;;;;;30.08;17.33;;;;;;;;;;10541272;28;20074;-76
2024/01/12 03:30:14;;;;;;;25.30;16.35;;;;;;;;;;10541009;28;20026;-75
2024/01/12 03:35:34;;;;;;;25.40;15.67;;;;;;;;;;10541253;28;20019;-75
2024/01/12 03:40:35;;;;;;;24.13;13.93;;;;;;;;;;10528414;28;20043;-76
2024/01/12 03:45:35;;;;;;;28.55;14.48;;;;;;;;;;10540669;28;20329;-75
2024/01/12 03:50:35;;;;;;;40.20;16.17;;;;;;;;;;10522582;28;20051;-75
2024/01/12 03:55:35;;;;;;;24.95;13.98;;;;;;;;;;10540281;28;20224;-75
2024/01/12 04:00:36;;;;;;;27.80;15.57;;;;;;;;;;10540130;28;20046;-76
2024/01/12 04:05:36;;;;;;;29.15;15.07;;;;;;;;;;10547801;28;20263;-75
2024/01/12 04:10:36;;;;;;;22.38;13.02;;;;;;;;;;10530648;28;20069;-76
2024/01/12 04:15:37;;;;;;;29.57;13.63;;;;;;;;;;10548393;28;20062;-76
2024/01/12 04:20:37;;;;;;;26.05;14.50;;;;;;;;;;10547716;28;20633;-75
2024/01/12 04:25:37;;;;;;;24.70;14.10;;;;;;;;;;10534257;28;20022;-76
2024/01/12 04:30:37;;;;;;;31.83;16.60;;;;;;;;;;10547874;28;20379;-75
2024/01/12 04:35:37;;;;;;;27.10;10.75;;;;;;;;;;10547381;28;20043;-75
2024/01/12 04:40:39;;;;;;;28.83;13.75;;;;;;;;;;10547134;28;20047;-76
2024/01/12 04:45:39;;;;;;;29.10;14.70;;;;;;;;;;10529329;28;20020;-76
2024/01/12 04:50:39;;;;;;;24.83;14.27;;;;;;;;;;10528266;28;20242;-76
2024/01/12 04:55:39;;;;;;;25.10;15.13;;;;;;;;;;10546973;28;20210;-75
2024/01/12 05:00:40;;;;;;;28.75;16.17;;;;;;;;;;10546296;28;20313;-75
2024/01/12 05:05:40;;;;;;;25.98;16.85;;;;;;;;;;10546334;28;20039;-74
2024/01/12 05:10:40;;;;;;;29.67;16.05;;;;;;;;;;10545847;28;20392;-76
2024/01/12 05:15:40;;;;;;;34.63;17.48;;;;;;;;;;10545374;28;20189;-76
2024/01/12 05:20:41;;;;;;;30.52;20.20;;;;;;;;;;10527390;28;20301;-75
2024/01/12 05:25:41;;;;;;;28.88;17.38;;;;;;;;;;10545421;28;20032;-76
2024/01/12 05:30:41;;;;;;;35.07;19.90;;;;;;;;;;10544206;28;20023;-75
2024/01/12 05:35:43;;;;;;;24.05;15.63;;;;;;;;;;10545743;28;20164;-74
2024/01/12 05:40:43;;;;;;;37.78;19.25;;;;;;;;;;10544888;28;20051;-76
2024/01/12 05:45:43;;;;;;;33.50;17.88;;;;;;;;;;10527021;28;20019;-74
2024/01/12 05:50:44;;;;;;;34.53;19.00;;;;;;;;;;10545119;28;20310;-73
2024/01/12 05:55:44;;;;;;;36.95;21.85;;;;;;;;;;10544252;28;20038;-74
2024/01/12 06:00:44;;;;;;;37.22;17.75;;;;;;;;;;10525775;28;20020;-73
2024/01/12 06:05:45;;;;;;;39.50;18.30;;;;;;;;;;10543555;28;20102;-73
2024/01/12 06:10:46;;;;;;;40.00;18.05;;;;;;;;;;10540567;28;20189;-74
2024/01/12 06:15:46;;;;;;;32.17;17.00;;;;;;;;;;10538308;28;20051;-74
2024/01/12 06:20:46;;;;;;;41.25;19.95;;;;;;;;;;10540024;28;20298;-74
2024/01/12 06:25:46;;;;;;;33.03;14.95;;;;;;;;;;10540712;28;20019;-75
2024/01/12 06:30:47;;;;;;;257.75;239.52;;;;;;;;;;10542485;28;20425;-73
2024/01/12 06:35:47;;;;;;;43.70;16.10;;;;;;;;;;10541991;28;20285;-73
2024/01/12 06:40:47;;;;;;;37.55;17.38;;;;;;;;;;10542176;28;20124;-73
2024/01/12 06:45:47;;;;;;;35.00;15.55;;;;;;;;;;10523891;28;20020;-73
2024/01/12 06:50:48;;;;;;;38.50;14.00;;;;;;;;;;10524116;28;20019;-73
2024/01/12 06:55:48;;;;;;;28.20;12.20;;;;;;;;;;10541972;28;20016;-73
2024/01/12 07:00:48;;;;;;;29.95;14.35;;;;;;;;;;10541807;28;20035;-73
2024/01/12 07:05:48;;;;;;;23.77;12.50;;;;;;;;;;10541450;28;20089;-72
2024/01/12 07:10:49;;;;;;;24.67;14.00;;;;;;;;;;10482992;28;20082;-73
2024/01/12 07:15:49;;;;;;;26.60;14.45;;;;;;;;;;10520497;28;20030;-73
2024/01/12 07:20:49;;;;;;;24.23;12.48;;;;;;;;;;10540657;28;20028;-74
2024/01/12 07:25:50;;;;;;;26.70;13.93;;;;;;;;;;10522757;28;20032;-74
2024/01/12 07:30:52;;;;;;;22.30;10.07;;;;;;;;;;10482736;28;20093;-74
2024/01/12 07:35:52;;;;;;;30.52;15.02;;;;;;;;;;10504090;28;20031;-74
2024/01/12 07:40:52;;;;;;;14.30;8.32;;;;;;;;;;10540107;28;20182;-74
2024/01/12 07:45:53;;;;;;;30.30;14.02;;;;;;;;;;10540735;28;20024;-74
2024/01/12 07:50:53;;;;;;;70.32;58.63;;;;;;;;;;10540247;28;20016;-73
2024/01/12 07:55:53;;;;;;;110.78;58.20;;;;;;;;;;10521905;28;20016;-74
2024/01/12 08:00:53;;;;;;;35.72;17.00;;;;;;;;;;10540007;28;20016;-74
2024/01/12 08:05:54;;;;;;;34.33;16.95;;;;;;;;;;10540274;28;20065;-74
2024/01/12 08:10:54;;;;;;;35.85;15.23;;;;;;;;;;10522135;28;20131;-74
2024/01/12 08:15:54;;;;;;;36.95;14.65;;;;;;;;;;10539834;28;20019;-74
2024/01/12 08:20:55;;;;;;;40.22;17.25;;;;;;;;;;10539847;28;20031;-73
2024/01/12 08:25:56;;;;;;;33.72;14.75;;;;;;;;;;10539381;28;20028;-74
2024/01/12 08:30:56;;;;;;;38.63;16.35;;;;;;;;;;10539456;28;20087;-73
2024/01/12 08:35:56;;;;;;;34.42;14.52;;;;;;;;;;10521506;28;20020;-74
2024/01/12 08:40:56;;;;;;;31.55;15.27;;;;;;;;;;10539332;28;20108;-73
2024/01/12 08:45:56;;;;;;;38.97;18.30;;;;;;;;;;10538979;28;20091;-74
2024/01/12 08:50:58;;;;;;;39.35;18.45;;;;;;;;;;10545270;28;20016;-73
2024/01/12 08:55:58;;;;;;;49.17;20.00;;;;;;;;;;10546597;28;20074;-74
2024/01/12 09:00:58;;;;;;;48.17;20.67;;;;;;;;;;10546037;28;20024;-74
2024/01/12 09:05:59;;;;;;;39.40;19.30;;;;;;;;;;10546299;28;20020;-74
2024/01/12 09:10:59;;;;;;;45.78;19.40;;;;;;;;;;10546104;28;20084;-74
2024/01/12 09:16:00;;;;;;;45.15;22.15;;;;;;;;;;10546208;28;20031;-73
2024/01/12 09:21:00;;;;;;;44.08;20.17;;;;;;;;;;10546283;28;20281;-74
2024/01/12 09:26:00;;;;;;;43.07;18.47;;;;;;;;;;10527398;28;20051;-75
2024/01/12 09:31:00;;;;;;;44.47;17.92;;;;;;;;;;10527085;28;20340;-75
2024/01/12 09:36:03;;;;;;;42.65;19.95;;;;;;;;;;10527128;28;20020;-75
2024/01/12 09:41:03;;;;;;;45.60;19.58;;;;;;;;;;10526982;28;20047;-74
2024/01/12 09:46:08;;;;;;;47.55;20.02;;;;;;;;;;10544743;28;20233;-73
2024/01/12 09:51:10;;;;;;;48.60;20.58;;;;;;;;;;10544615;28;20366;-74
2024/01/12 09:56:10;;;;;;;46.95;22.48;;;;;;;;;;10544653;28;20118;-75
2024/01/12 10:01:14;;;;;;;42.63;19.63;;;;;;;;;;10543903;28;20023;-75
2024/01/12 10:06:14;;;;;;;39.28;17.73;;;;;;;;;;10544178;28;20258;-74
2024/01/12 10:11:15;;;;;;;42.63;18.98;;;;;;;;;;10543875;28;20297;-74
2024/01/12 10:16:18;;;;;;;44.53;17.90;;;;;;;;;;10543970;28;20023;-73
2024/01/12 10:21:18;;;;;;;41.88;17.25;;;;;;;;;;10523250;28;20099;-75
2024/01/12 10:26:18;;;;;;;40.40;18.42;;;;;;;;;;10515089;28;20310;-73
2024/01/12 10:31:19;;;;;;;37.47;16.77;;;;;;;;;;10542830;28;20019;-75
2024/01/12 10:36:23;;;;;;;42.28;17.98;;;;;;;;;;10542948;28;20027;-75
2024/01/12 10:41:24;;;;;;;40.22;16.50;;;;;;;;;;10542113;28;20564;-74
2024/01/12 10:46:40;;;;;;;39.92;19.55;;;;;;;;;;10542870;28;20038;-74
2024/01/12 10:51:46;;;;;;;39.08;17.58;;;;;;;;;;10541915;28;20027;-74
2024/01/12 10:56:46;;;;;;;37.67;16.85;;;;;;;;;;10523446;28;20317;-73
2024/01/12 11:01:47;;;;;;;41.20;18.92;;;;;;;;;;10541600;28;20043;-74
2024/01/12 11:06:48;;;;;;;48.83;20.33;;;;;;;;;;10541531;28;20024;-74
2024/01/12 11:11:54;;;;;;;39.72;18.15;;;;;;;;;;10544264;28;20019;-75
2024/01/12 11:16:54;;;;;;;41.17;19.10;;;;;;;;;;10544495;28;20035;-74
2024/01/12 11:22:01;;;;;;;43.13;19.30;;;;;;;;;;10548366;28;20342;-74
2024/01/12 11:27:02;;;;;;;41.60;18.80;;;;;;;;;;10540839;28;20312;-74
2024/01/12 11:32:03;;;;;;;40.65;17.67;;;;;;;;;;10523065;28;20016;-74
2024/01/12 11:37:07;;;;;;;47.40;21.02;;;;;;;;;;10540791;28;20377;-74
2024/01/12 11:42:08;;;;;;;48.17;20.38;;;;;;;;;;10539439;28;20184;-73
2024/01/12 11:47:09;;;;;;;50.83;18.92;;;;;;;;;;10539453;28;20016;-75
2024/01/12 11:52:09;;;;;;;47.25;19.63;;;;;;;;;;10529534;28;20377;-73
2024/01/12 11:57:10;;;;;;;44.72;20.05;;;;;;;;;;10534950;28;20035;-74
2024/01/12 12:02:10;;;;;;;41.45;17.15;;;;;;;;;;10539248;28;20035;-73
2024/01/12 12:07:10;;;;;;;54.47;20.98;;;;;;;;;;10539071;28;20016;-74
2024/01/12 12:12:10;;;;;;;46.35;20.52;;;;;;;;;;10539735;28;20356;-73
2024/01/12 12:17:11;;;;;;;53.78;22.27;;;;;;;;;;10539011;28;20306;-73
2024/01/12 12:22:12;;;;;;;52.22;23.90;;;;;;;;;;10539160;28;20024;-74
2024/01/12 12:27:13;;;;;;;54.60;27.17;;;;;;;;;;10529085;28;20019;-75
2024/01/12 12:32:13;;;;;;;52.10;25.35;;;;;;;;;;10543121;28;20035;-74
2024/01/12 12:37:13;;;;;;;65.63;24.40;;;;;;;;;;10546525;28;20024;-74
2024/01/12 12:42:13;;;;;;;54.38;27.40;;;;;;;;;;10559965;28;20234;-74
2024/01/12 12:47:14;;;;;;;47.33;19.38;;;;;;;;;;10560108;28;20078;-74
2024/01/12 12:52:14;;;;;;;65.90;26.65;;;;;;;;;;10527937;28;20054;-74
2024/01/12 12:57:15;;;;;;;57.13;27.10;;;;;;;;;;10545515;28;20012;-74
2024/01/12 13:02:15;;;;;;;56.28;23.67;;;;;;;;;;10545596;28;20012;-74
2024/01/12 13:07:16;;;;;;;58.85;26.27;;;;;;;;;;10545611;28;20286;-75
2024/01/12 13:12:16;;;;;;;42.28;20.75;;;;;;;;;;10544997;28;20008;-73
2024/01/12 13:17:17;;;;;;;57.55;25.05;;;;;;;;;;10526904;28;20364;-74
2024/01/12 13:22:17;;;;;;;47.17;21.05;;;;;;;;;;10549186;28;20011;-75
2024/01/12 13:27:17;;;;;;;51.70;23.13;;;;;;;;;;10554869;28;20024;-75
2024/01/12 13:32:18;;;;;;;55.40;24.87;;;;;;;;;;10544090;28;20091;-74
2024/01/12 13:37:18;;;;;;;57.93;27.47;;;;;;;;;;10544103;28;20299;-74
2024/01/12 13:42:18;;;;;;;55.87;22.00;;;;;;;;;;10543805;28;20234;-74
2024/01/12 13:47:19;;;;;;;61.88;26.75;;;;;;;;;;10543753;28;20010;-74
2024/01/12 13:52:20;;;;;;;59.17;25.08;;;;;;;;;;10543632;28;20036;-74
2024/01/12 13:57:20;;;;;;;54.65;23.75;;;;;;;;;;10525685;28;20056;-74
2024/01/12 14:02:21;;;;;;;58.70;27.38;;;;;;;;;;10543704;28;20011;-75
2024/01/12 14:07:21;;;;;;;57.72;25.90;;;;;;;;;;10543277;28;20004;-75
2024/01/12 14:12:23;;;;;;;46.88;25.65;;;;;;;;;;10541802;28;20016;-74
2024/01/12 14:17:23;;;;;;;60.95;26.92;;;;;;;;;;10542784;28;20094;-74
2024/01/12 14:22:24;;;;;;;66.82;24.02;;;;;;;;;;10542739;28;20075;-76
2024/01/12 14:27:24;;;;;;;60.40;24.83;;;;;;;;;;10542317;28;20270;-74
2024/01/12 14:32:24;;;;;;;47.30;24.83;;;;;;;;;;10541280;28;20194;-75
2024/01/12 14:37:25;;;;;;;54.77;24.77;;;;;;;;;;10541080;28;20266;-76
2024/01/12 14:42:26;;;;;;;68.93;29.88;;;;;;;;;;10552449;28;20360;-75
2024/01/12 14:47:27;;;;;;;59.30;26.60;;;;;;;;;;10542210;28;20367;-75
2024/01/12 14:52:28;;;;;;;54.92;24.95;;;;;;;;;;10513404;28;20221;-76
2024/01/12 14:57:28;;;;;;;74.18;33.25;;;;;;;;;;10536502;28;20015;-76
2024/01/12 15:02:29;;;;;;;68.38;30.98;;;;;;;;;;10539691;28;20330;-75
2024/01/12 15:07:30;;;;;;;69.05;30.70;;;;;;;;;;10539107;28;20020;-76
2024/01/12 15:12:31;;;;;;;70.68;32.15;;;;;;;;;;10539767;28;20050;-76
2024/01/12 15:17:32;;;;;;;53.75;28.25;;;;;;;;;;10540034;28;20038;-76
2024/01/12 15:22:32;;;;;;;79.47;33.80;;;;;;;;;;10545172;28;20336;-77
2024/01/12 15:27:32;;;;;;;57.73;28.27;;;;;;;;;;10545687;28;20205;-77
2024/01/12 15:32:33;;;;;;;73.80;29.65;;;;;;;;;;10521501;28;20031;-79
2024/01/12 15:37:33;;;;;;;64.23;29.97;;;;;;;;;;10539430;28;20039;-76
2024/01/12 15:42:33;;;;;;;64.72;33.25;;;;;;;;;;10537992;28;20044;-77
2024/01/12 15:47:34;;;;;;;83.07;33.17;;;;;;;;;;10539444;28;20555;-77
2024/01/12 15:52:34;;;;;;;64.38;30.08;;;;;;;;;;10537140;28;20092;-75
2024/01/12 15:57:34;;;;;;;70.22;27.65;;;;;;;;;;10542430;28;20091;-75
2024/01/12 16:02:35;;;;;;;59.15;25.52;;;;;;;;;;10529620;28;20020;-75
2024/01/12 16:07:35;;;;;;;57.72;25.40;;;;;;;;;;10548884;28;20020;-76
2024/01/12 16:12:35;;;;;;;64.50;29.88;;;;;;;;;;10547234;28;20079;-76
2024/01/12 16:17:36;;;;;;;58.58;24.83;;;;;;;;;;10547680;28;20040;-76
2024/01/12 16:22:37;;;;;;;71.10;28.80;;;;;;;;;;10546747;28;20302;-76
2024/01/12 16:27:37;;;;;;;59.00;27.60;;;;;;;;;;10546623;28;20297;-77
2024/01/12 16:32:37;;;;;;;71.00;29.30;;;;;;;;;;10546501;28;20465;-75
2024/01/12 16:37:37;;;;;;;87.40;37.83;;;;;;;;;;10546778;28;20114;-75
2024/01/12 16:42:38;;;;;;;57.35;29.10;;;;;;;;;;10528323;28;20367;-75
2024/01/12 16:47:38;;;;;;;54.55;29.05;;;;;;;;;;10528161;28;20012;-75
2024/01/12 16:52:39;;;;;;;61.83;28.15;;;;;;;;;;10531215;28;20016;-76
2024/01/12 16:57:41;;;;;;;47.75;26.75;;;;;;;;;;10530676;28;20019;-75
2024/01/12 17:02:41;;;;;;;63.22;38.88;;;;;;;;;;10547890;28;20024;-75
2024/01/12 17:07:41;;;;;;;75.03;34.65;;;;;;;;;;10526603;28;20012;-76
2024/01/12 17:12:42;;;;;;;60.88;26.15;;;;;;;;;;10544111;28;20027;-76
2024/01/12 17:17:42;;;;;;;76.15;30.92;;;;;;;;;;10545006;28;20019;-76
2024/01/12 17:22:42;;;;;;;59.05;32.25;;;;;;;;;;10526338;28;20020;-75
2024/01/12 17:27:42;;;;;;;57.05;29.30;;;;;;;;;;10544688;28;20016;-76
2024/01/12 17:32:43;;;;;;;86.93;77.75;;;;;;;;;;10544733;28;20228;-75
2024/01/12 17:37:43;;;;;;;54.83;29.83;;;;;;;;;;10545066;28;20159;-75
2024/01/12 17:42:43;;;;;;;58.35;29.77;;;;;;;;;;10525710;28;20044;-75
2024/01/12 17:47:44;;;;;;;57.20;24.40;;;;;;;;;;10543363;28;20320;-75
2024/01/12 17:52:44;;;;;;;68.57;27.50;;;;;;;;;;10543817;28;20035;-75
2024/01/12 17:57:44;;;;;;;60.00;28.00;;;;;;;;;;10543608;28;20024;-74
2024/01/12 18:02:44;;;;;;;63.55;28.80;;;;;;;;;;10545760;28;20849;-76
2024/01/12 18:07:45;;;;;;;71.00;29.27;;;;;;;;;;10526163;28;20202;-76
2024/01/12 18:12:45;;;;;;;61.25;26.85;;;;;;;;;;10549842;28;20024;-75
2024/01/12 18:17:46;;;;;;;59.45;29.88;;;;;;;;;;10543465;28;20040;-75
2024/01/12 18:22:46;;;;;;;54.20;28.77;;;;;;;;;;10532441;28;20020;-75
2024/01/12 18:27:46;;;;;;;58.50;29.08;;;;;;;;;;10531733;28;20354;-75
2024/01/12 18:32:46;;;;;;;67.93;29.25;;;;;;;;;;10530836;28;20387;-75
2024/01/12 18:37:47;;;;;;;55.05;27.20;;;;;;;;;;10512768;28;20236;-74
2024/01/12 18:42:47;;;;;;;58.13;27.48;;;;;;;;;;10530563;28;20055;-76
2024/01/12 18:47:47;;;;;;;48.78;25.27;;;;;;;;;;10528682;28;20027;-76
2024/01/12 18:52:47;;;;;;;64.93;29.27;;;;;;;;;;10529742;28;20032;-76
2024/01/12 18:57:49;;;;;;;58.65;25.60;;;;;;;;;;10512421;28;20050;-76
2024/01/12 19:02:50;;;;;;;67.65;29.65;;;;;;;;;;10530471;28;20375;-76
2024/01/12 19:07:50;;;;;;;63.45;31.85;;;;;;;;;;10530553;28;20277;-74
2024/01/12 19:12:52;;;;;;;76.70;31.25;;;;;;;;;;10530084;28;20031;-78
2024/01/12 19:17:52;;;;;;;64.13;26.88;;;;;;;;;;10528728;28;20340;-75
2024/01/12 19:22:53;;;;;;;69.60;30.10;;;;;;;;;;10528567;28;20016;-77
2024/01/12 19:27:53;;;;;;;52.60;26.47;;;;;;;;;;10531556;28;20015;-81
2024/01/12 19:32:53;;;;;;;69.70;28.85;;;;;;;;;;10531132;28;20015;-77
2024/01/12 19:37:56;;;;;;;102.07;92.75;;;;;;;;;;10537173;28;20020;-83
2024/01/12 19:42:56;;;;;;;67.60;31.10;;;;;;;;;;10537016;28;20055;-85
2024/01/12 19:47:57;;;;;;;57.72;24.13;;;;;;;;;;10537125;28;20043;-75
2024/01/12 19:52:58;;;;;;;48.85;28.50;;;;;;;;;;10528581;28;20179;-75
2024/01/12 19:57:59;;;;;;;252.68;232.38;;;;;;;;;;10529042;28;20206;-74
2024/01/12 20:02:59;;;;;;;65.75;29.95;;;;;;;;;;10528689;28;20302;-74
2024/01/12 20:07:59;;;;;;;57.63;26.77;;;;;;;;;;10529001;28;20097;-84
2024/01/12 20:13:00;;;;;;;60.53;33.90;;;;;;;;;;10526082;28;20349;-79
2024/01/12 20:18:00;;;;;;;65.07;26.58;;;;;;;;;;10529498;28;20012;-76
2024/01/12 20:23:00;;;;;;;58.67;29.05;;;;;;;;;;10528020;28;20016;-76
2024/01/12 20:28:01;;;;;;;64.53;27.48;;;;;;;;;;10527089;28;20024;-77
2024/01/12 20:33:01;;;;;;;52.65;26.17;;;;;;;;;;10528169;28;20042;-76
2024/01/12 20:38:01;;;;;;;63.83;30.58;;;;;;;;;;10528427;28;20024;-75
2024/01/12 20:43:02;;;;;;;56.72;25.70;;;;;;;;;;10508770;28;20078;-76
2024/01/12 20:48:02;;;;;;;56.40;24.93;;;;;;;;;;10515621;28;20024;-77
2024/01/12 20:53:03;;;;;;;51.10;22.43;;;;;;;;;;10533607;28;20344;-77
2024/01/12 20:58:03;;;;;;;47.28;21.65;;;;;;;;;;10539358;28;20028;-78
2024/01/12 21:03:03;;;;;;;53.80;23.20;;;;;;;;;;10535322;28;20016;-77
2024/01/12 21:08:04;;;;;;;49.57;23.00;;;;;;;;;;10517659;28;20310;-77
2024/01/12 21:13:04;;;;;;;173.70;155.93;;;;;;;;;;10535239;28;20004;-76
2024/01/12 21:18:04;;;;;;;37.92;20.27;;;;;;;;;;10534646;28;20277;-77
2024/01/12 21:23:04;;;;;;;55.97;21.57;;;;;;;;;;10515261;28;20047;-78
2024/01/12 21:28:05;;;;;;;40.70;18.90;;;;;;;;;;10533016;28;20203;-77
2024/01/12 21:33:05;;;;;;;60.23;19.83;;;;;;;;;;10532755;28;20074;-76
2024/01/12 21:38:05;;;;;;;51.45;18.83;;;;;;;;;;10516549;28;20265;-78
2024/01/12 21:43:06;;;;;;;44.53;18.07;;;;;;;;;;10532997;28;20100;-80
2024/01/12 21:48:06;;;;;;;45.13;16.83;;;;;;;;;;10535720;28;20234;-79
2024/01/12 21:53:06;;;;;;;56.67;49.73;;;;;;;;;;10533968;28;20022;-78
2024/01/12 21:58:06;;;;;;;230.30;211.27;;;;;;;;;;10533612;28;20311;-77
2024/01/12 22:03:07;;;;;;;269.70;248.75;;;;;;;;;;10532357;28;20228;-79
2024/01/12 22:08:07;;;;;;;275.85;253.98;;;;;;;;;;10533628;28;20179;-77
2024/01/12 22:13:07;;;;;;;198.93;183.55;;;;;;;;;;10532248;28;20024;-80
2024/01/12 22:18:07;;;;;;;203.32;187.05;;;;;;;;;;10533478;28;20020;-75
2024/01/12 22:23:08;;;;;;;121.32;111.95;;;;;;;;;;10513718;28;20315;-78
2024/01/12 22:28:08;;;;;;;57.97;53.42;;;;;;;;;;10534468;28;20051;-76
2024/01/12 22:33:09;;;;;;;231.93;213.40;;;;;;;;;;10518285;28;20011;-81
2024/01/12 22:38:10;;;;;;;39.47;17.23;;;;;;;;;;10535946;28;20020;-86
2024/01/12 22:43:10;;;;;;;37.45;16.63;;;;;;;;;;10535882;28;20032;-82
2024/01/12 22:48:10;;;;;;;42.63;17.77;;;;;;;;;;10530703;28;20082;-74
2024/01/12 22:53:11;;;;;;;39.25;17.90;;;;;;;;;;10529107;28;20061;-76
2024/01/12 22:58:11;;;;;;;44.55;17.80;;;;;;;;;;10529120;28;20019;-74
2024/01/12 23:03:11;;;;;;;47.92;17.30;;;;;;;;;;10529923;28;20923;-75
2024/01/12 23:08:11;;;;;;;33.58;15.75;;;;;;;;;;10529130;28;21731;-74
2024/01/12 23:13:12;;;;;;;33.58;15.90;;;;;;;;;;10528951;28;20737;-74
2024/01/12 23:18:13;;;;;;;46.92;18.90;;;;;;;;;;10529406;28;20023;-75
2024/01/12 23:23:13;;;;;;;43.20;18.48;;;;;;;;;;10529444;28;20401;-74
2024/01/12 23:28:15;;;;;;;40.93;20.53;;;;;;;;;;10531255;28;20314;-78
2024/01/12 23:33:15;;;;;;;43.63;20.27;;;;;;;;;;10511547;28;20011;-75
2024/01/12 23:38:15;;;;;;;52.55;19.30;;;;;;;;;;10528986;28;20079;-74
2024/01/12 23:43:15;;;;;;;50.80;23.25;;;;;;;;;;10529136;28;20040;-75
2024/01/12 23:48:16;;;;;;;43.92;18.50;;;;;;;;;;10527718;28;20016;-75
2024/01/12 23:53:16;;;;;;;40.60;18.92;;;;;;;;;;10527156;28;20210;-75
2024/01/12 23:58:16;;;;;;;41.17;18.10;;;;;;;;;;10528629;28;20016;-75
